Flight Track Log - Related Links

Times and Time Zones

All times are in EDT time to prevent confusion due to time zone crossing. See the SKW4762 flight status page for this flight to view local times or setup timezone preferences in your user account.

Time Position Orientation Groundspeed Altitude Reporting Facility
EDT Latitude Longitude Course Direction KTS MPH feet Rate Location/Type
Wed 09:45:15 AM 35.0340 -115.2021 226° Southwest  Level FlightAware Approximate
Wed 09:46:31 AM 33.9333 -116.5833 23° Northeast 233 268 5,600  Level Southern California TRACON
Wed 09:47:06 AM 33.9700 -116.5644 73° East 251 289 6,800 1,958 Climbing Los Angeles Center
Wed 09:48:06 AM 33.9892 -116.4894 78° East 258 297 8,700 1,700 Climbing Los Angeles Center
Wed 09:49:06 AM 34.0061 -116.3919 77° East 269 310 10,200 1,650 Climbing Los Angeles Center
Wed 09:50:06 AM 34.0250 -116.2942 80° East 282 325 12,000 1,950 Climbing Los Angeles Center
Wed 09:51:06 AM 34.0397 -116.1914 77° East 298 343 14,100 1,650 Climbing Los Angeles Center
Wed 09:52:06 AM 34.0606 -116.0786 79° East 319 367 15,300 1,100 Climbing Los Angeles Center
Wed 09:53:06 AM 34.0792 -115.9608 78° East 346 398 16,300 1,050 Climbing Los Angeles Center
Wed 09:54:06 AM 34.1019 -115.8303 59° Northeast 368 423 17,400 1,100 Climbing Los Angeles Center
Wed 09:55:06 AM 34.1581 -115.7169 42° Northeast 380 437 18,500 1,250 Climbing Los Angeles Center
Wed 09:56:06 AM 34.2453 -115.6211 41° Northeast 389 448 19,900 1,450 Climbing Los Angeles Center
Wed 09:57:06 AM 34.3325 -115.5300 21° North 400 460 21,400 1,300 Climbing Los Angeles Center
Wed 09:58:06 AM 34.4492 -115.4764 22° Northeast 400 460 22,500 950 Climbing Los Angeles Center
Wed 09:59:06 AM 34.5553 -115.4250 19° North 399 459 23,300 650 Climbing Los Angeles Center
Wed 10:00:06 AM 34.6678 -115.3786 18° North 413 475 23,800 500 Climbing Los Angeles Center
Wed 10:01:06 AM 34.7822 -115.3322 21° North 423 487 24,300 500 Climbing Los Angeles Center
Wed 10:02:06 AM 34.8986 -115.2778 20° North 428 493 24,800 500 Climbing Los Angeles Center
Wed 10:03:06 AM 35.0153 -115.2258 19° North 428 493 25,300 500 Climbing Los Angeles Center
Wed 10:04:06 AM 35.1317 -115.1764 18° North 433 498 25,800 500 Climbing Los Angeles Center
Wed 10:05:06 AM 35.2525 -115.1292 16° North 444 511 26,300 500 Climbing Los Angeles Center
Wed 10:06:06 AM 35.3750 -115.0869 17° North 450 518 26,800 550 Climbing Los Angeles Center
Wed 10:07:06 AM 35.4978 -115.0419 15° North 455 524 27,400 500 Climbing Los Angeles Center
Wed 10:08:06 AM 35.6228 -114.9994 17° North 455 524 27,800 500 Climbing Los Angeles Center
Wed 10:09:06 AM 35.7475 -114.9519 15° North 455 524 28,400 550 Climbing Los Angeles Center
Wed 10:10:06 AM 35.8742 -114.9089 18° North 455 524 28,900 500 Climbing Los Angeles Center
Wed 10:11:06 AM 35.9989 -114.8583 30° Northeast 460 529 29,400 500 Climbing Los Angeles Center
Wed 10:12:06 AM 36.1128 -114.7769 32° Northeast 460 529 29,900 500 Climbing Los Angeles Center
Wed 10:13:06 AM 36.2244 -114.6900 32° Northeast 466 536 30,400 500 Climbing Los Angeles Center
Wed 10:14:06 AM 36.3361 -114.6031 32° Northeast 471 542 30,900 300 Climbing Los Angeles Center
Wed 10:15:06 AM 36.4497 -114.5156 31° Northeast 471 542 31,000 50 Climbing Los Angeles Center
Wed 10:16:06 AM 36.5569 -114.4358 31° Northeast 485 558 31,000  Level Los Angeles Center
Wed 10:17:06 AM 36.6767 -114.3453 31° Northeast 491 565 31,000  Level Los Angeles Center
Wed 10:18:06 AM 36.7964 -114.2544 31° Northeast 497 572 31,000  Level Los Angeles Center
Wed 10:19:06 AM 36.9158 -114.1633 32° Northeast 497 572 31,000  Level Los Angeles Center
Wed 10:20:06 AM 37.0372 -114.0692 32° Northeast 497 572 31,000 -203 Level Los Angeles Center
Wed 10:21:34 AM 37.2058 -113.9367 32° Northeast 511 588 30,500 -600 Descending Salt Lake Center
Wed 10:22:36 AM 37.3292 -113.8392 32° Northeast 513 590 29,500 -732 Descending Salt Lake Center
Wed 10:23:37 AM 37.4494 -113.7450 32° Northeast 506 582 29,000 -244 Descending Salt Lake Center
Wed 10:24:39 AM 37.5686 -113.6508 32° Northeast 500 575 29,000  Level Salt Lake Center
Wed 10:25:41 AM 37.6883 -113.5569 32° Northeast 496 571 29,000  Level Salt Lake Center
Wed 10:26:43 AM 37.8086 -113.4606 32° Northeast 498 573 29,000  Level Salt Lake Center
Wed 10:27:45 AM 37.9300 -113.3642 33° Northeast 500 575 29,000  Level Salt Lake Center
Wed 10:28:47 AM 38.0514 -113.2658 32° Northeast 503 579 29,000  Level Salt Lake Center
Wed 10:30:50 AM 38.3142 -113.0528 27° Northeast 499 574 29,000  Level Salt Lake Center
Wed 10:31:52 AM 38.4378 -112.9722 23° Northeast 490 564 29,000  Level Salt Lake Center
Wed 10:32:54 AM 38.5650 -112.9047 23° Northeast 482 555 29,000  Level Salt Lake Center
Wed 10:33:56 AM 38.6931 -112.8350 23° Northeast 488 562 29,000  Level Salt Lake Center
Wed 10:34:58 AM 38.8197 -112.7675 22° Northeast 486 559 29,000  Level Salt Lake Center
Wed 10:36:00 AM 38.9472 -112.7003 23° Northeast 486 559 29,000  Level Salt Lake Center
Wed 10:37:01 AM 39.0733 -112.6308 23° Northeast 486 559 29,000  Level Salt Lake Center
Wed 10:38:03 AM 39.1994 -112.5633 22° Northeast 485 558 29,000 -194 Level Salt Lake Center
Wed 10:39:05 AM 39.3269 -112.4961 13° North 484 557 28,600 -1,306 Descending Salt Lake Center
Wed 10:40:07 AM 39.4592 -112.4558 15° North 481 554 26,300 -2,129 Descending Salt Lake Center
Wed 10:41:09 AM 39.5856 -112.4131 14° North 465 535 24,200 -1,984 Descending Salt Lake Center
Wed 10:42:11 AM 39.7092 -112.3719 14° North 457 526 22,200 -2,146 Descending Salt Lake Center
Wed 10:43:12 AM 39.8519 -112.3247 North 452 520 19,800 -2,019 Descending Salt Lake Center
Wed 10:43:58 AM 39.9350 -112.3083 17° North 398 458 18,600 -1,458 Descending Salt Lake Center
Wed 10:44:59 AM 40.0308 -112.2708 17° North 379 436 17,200 -1,190 Descending Salt Lake Center
Wed 10:45:54 AM 40.1247 -112.2342 13° North 361 415 16,300 -1,180 Descending Salt Lake Center
Wed 10:47:01 AM 40.2322 -112.2011 15° North 358 412 14,800 -1,087 Descending Salt Lake Center
Wed 10:48:01 AM 40.3247 -112.1675 14° North 347 399 14,000 -843 Descending Salt Lake Center
Wed 10:49:02 AM 40.4175 -112.1361 16° North 344 396 13,100 -541 Descending Salt Lake Center
Wed 10:50:03 AM 40.5039 -112.1044 10° North 325 374 12,900 -744 Descending Salt Lake Center
Wed 10:51:03 AM 40.5883 -112.0844 359° North 290 334 11,600 -942 Descending Salt Lake Center
Wed 10:52:04 AM 40.6681 -112.0858 358° North 282 325 11,000 -246 Descending Salt Lake Center
Wed 10:53:05 AM 40.7400 -112.0897 354° North 240 276 11,100  Climbing Salt Lake Center
Wed 10:54:06 AM 40.8042 -112.0992 355° North 235 270 11,000 -492 Descending Salt Lake Center
Wed 10:55:07 AM 40.8658 -112.1067 358° North 221 254 10,100 -1,041 Descending Salt Lake Center
Wed 10:56:07 AM 40.9267 -112.1089 57° Northeast 219 252 8,900 -1,133 Descending Salt Lake Center
Wed 10:56:37 AM 40.9392 -112.0833 124° Southeast 218 251 8,400 -1,574 Descending Salt Lake Center
Wed 10:57:08 AM 40.9214 -112.0481 142° Southeast 209 241 7,300 -1,839 Descending Salt Lake Center
Wed 10:57:39 AM 40.9019 -112.0281 160° South 217 250 6,500 -1,239 Descending Salt Lake Center
Wed 10:58:40 AM 40.8567 -112.0061 173° South 158 182 5,400 -1,113 Descending Salt Lake Center
Wed 10:59:16 AM 40.8258 -112.0011 173° South 143 165 4,700 -1,167 Descending Salt Lake Center

Login

Don't have an account? Register now (free) for customized features, flight alerts, and more!